createdAt,value
2019-06-20T00:00:52.831Z,9.80
2019-06-20T00:01:52.818Z,6.90
2019-06-20T00:02:52.798Z,8.10
2019-06-20T00:03:52.816Z,7.40
2019-06-20T00:04:52.764Z,7.90
2019-06-20T00:05:52.759Z,7.40
2019-06-20T00:06:52.737Z,8.30
2019-06-20T00:07:52.725Z,8.10
2019-06-20T00:08:52.714Z,7.40
2019-06-20T00:09:52.722Z,8.80
2019-06-20T00:10:52.677Z,7.60
2019-06-20T00:11:52.671Z,6.80
2019-06-20T00:13:00.394Z,8.50
2019-06-20T00:13:52.631Z,9.20
2019-06-20T00:14:52.624Z,8.70
2019-06-20T00:15:52.690Z,7.10
2019-06-20T00:16:52.596Z,8.30
2019-06-20T00:17:52.575Z,7.40
2019-06-20T00:18:52.584Z,7.20
2019-06-20T00:19:52.560Z,8.40
2019-06-20T00:20:52.539Z,5.80
2019-06-20T00:21:52.521Z,7.50
2019-06-20T00:22:52.504Z,6.70
2019-06-20T00:23:52.506Z,6.60
2019-06-20T00:24:52.498Z,6.80
2019-06-20T00:25:52.463Z,5.50
2019-06-20T00:26:52.445Z,6.30
2019-06-20T00:27:52.429Z,7.90
2019-06-20T00:28:52.417Z,6.30
2019-06-20T00:29:52.415Z,7.00
2019-06-20T00:30:52.402Z,5.60
2019-06-20T00:31:52.389Z,4.80
2019-06-20T00:32:52.358Z,6.00
2019-06-20T00:33:52.345Z,4.60
2019-06-20T00:34:52.325Z,5.30
2019-06-20T00:35:52.312Z,4.00
2019-06-20T00:36:52.318Z,3.90
2019-06-20T00:37:52.285Z,5.40
2019-06-20T00:38:52.267Z,4.70
2019-06-20T00:39:52.263Z,3.40
2019-06-20T00:40:52.241Z,4.90
2019-06-20T00:41:52.249Z,3.70
2019-06-20T00:42:52.474Z,5.10
2019-06-20T00:43:52.196Z,3.60
2019-06-20T00:44:52.184Z,5.80
2019-06-20T00:45:52.202Z,3.20
2019-06-20T00:46:52.154Z,8.40
2019-06-20T00:47:52.155Z,4.10
2019-06-20T00:48:52.146Z,7.40
2019-06-20T00:49:52.114Z,5.50
2019-06-20T00:50:52.097Z,3.90
2019-06-20T00:51:52.081Z,5.20
2019-06-20T00:52:52.066Z,4.90
2019-06-20T00:53:52.057Z,4.50
2019-06-20T00:54:52.048Z,4.20
2019-06-20T00:55:52.020Z,3.90
2019-06-20T00:56:52.010Z,3.70
2019-06-20T00:57:51.990Z,6.50
2019-06-20T00:58:51.989Z,4.50
2019-06-20T00:59:51.958Z,5.50
2019-06-20T01:00:51.987Z,4.00
2019-06-20T01:01:51.930Z,3.80
2019-06-20T01:02:51.918Z,3.80
2019-06-20T01:03:51.898Z,3.60
2019-06-20T01:04:51.886Z,4.10
2019-06-20T01:05:51.901Z,4.00
2019-06-20T01:06:51.854Z,3.00
2019-06-20T01:07:51.840Z,5.20
2019-06-20T01:08:51.822Z,4.70
2019-06-20T01:09:51.808Z,3.80
2019-06-20T01:10:51.810Z,3.50
2019-06-20T01:11:51.778Z,3.40
2019-06-20T01:12:51.766Z,3.70
2019-06-20T01:13:52.865Z,6.00
2019-06-20T01:14:51.733Z,4.80
2019-06-20T01:15:51.716Z,3.90
2019-06-20T01:16:51.716Z,3.10
2019-06-20T01:17:51.685Z,4.40
2019-06-20T01:18:51.674Z,5.30
2019-06-20T01:19:51.665Z,3.40
2019-06-20T01:20:51.644Z,4.80
2019-06-20T01:21:51.646Z,3.30
2019-06-20T01:22:51.623Z,4.30
2019-06-20T01:23:51.594Z,4.50
2019-06-20T01:24:51.581Z,4.50
2019-06-20T01:25:51.567Z,4.80
2019-06-20T01:26:51.567Z,5.40
2019-06-20T01:27:51.533Z,6.00
2019-06-20T01:28:51.521Z,6.60
2019-06-20T01:29:51.536Z,7.10
2019-06-20T01:30:51.489Z,6.00
2019-06-20T01:31:51.474Z,6.80
2019-06-20T01:32:51.456Z,7.00
2019-06-20T01:33:51.440Z,6.90
2019-06-20T01:34:51.424Z,7.30
2019-06-20T01:35:51.428Z,6.20
2019-06-20T01:36:51.408Z,8.00
2019-06-20T01:37:51.382Z,6.90
2019-06-20T01:38:51.369Z,8.30
2019-06-20T01:39:51.352Z,5.60
2019-06-20T01:40:51.358Z,7.00
2019-06-20T01:41:51.321Z,7.60
2019-06-20T01:42:51.305Z,7.30
2019-06-20T01:43:51.333Z,7.20
2019-06-20T01:44:51.271Z,6.50
2019-06-20T01:45:51.345Z,7.40
2019-06-20T01:46:51.265Z,9.00
2019-06-20T01:47:51.225Z,9.00
2019-06-20T01:48:51.213Z,8.70
2019-06-20T01:49:51.203Z,7.40
2019-06-20T01:50:51.182Z,6.90
2019-06-20T01:51:51.198Z,7.00
2019-06-20T01:52:51.166Z,7.50
2019-06-20T01:53:51.141Z,9.70
2019-06-20T01:54:51.125Z,8.80
2019-06-20T01:55:51.118Z,9.20
2019-06-20T01:56:51.126Z,10.70
2019-06-20T01:57:51.080Z,8.30
2019-06-20T01:58:51.062Z,9.00
2019-06-20T01:59:51.049Z,9.00
2019-06-20T02:00:51.034Z,11.60
2019-06-20T02:01:51.019Z,8.50
2019-06-20T02:02:51.035Z,11.00
2019-06-20T02:03:50.990Z,12.40
2019-06-20T02:04:50.976Z,11.40
2019-06-20T02:05:50.959Z,9.40
2019-06-20T02:06:50.946Z,12.10
2019-06-20T02:07:50.930Z,11.10
2019-06-20T02:08:50.930Z,9.40
2019-06-20T02:09:50.901Z,11.40
2019-06-20T02:10:50.885Z,10.60
2019-06-20T02:11:50.868Z,10.60
2019-06-20T02:12:50.852Z,13.40
2019-06-20T02:14:03.565Z,13.40
2019-06-20T02:14:50.846Z,13.90
2019-06-20T02:15:50.815Z,13.10
2019-06-20T02:16:50.790Z,11.80
2019-06-20T02:17:50.777Z,14.20
2019-06-20T02:18:50.801Z,11.90
2019-06-20T02:19:50.770Z,12.40
2019-06-20T02:20:50.733Z,15.50
2019-06-20T02:21:50.721Z,13.50
2019-06-20T02:22:50.706Z,13.30
2019-06-20T02:23:50.748Z,12.60
2019-06-20T02:24:50.675Z,13.10
2019-06-20T02:25:50.673Z,12.40
2019-06-20T02:26:50.639Z,12.20
2019-06-20T02:27:50.622Z,14.90
2019-06-20T02:28:50.608Z,16.70
2019-06-20T02:29:50.595Z,12.50
2019-06-20T02:30:50.665Z,13.90
2019-06-20T02:31:50.593Z,15.30
2019-06-20T02:32:50.546Z,14.00
2019-06-20T02:33:50.556Z,13.80
2019-06-20T02:34:50.515Z,16.80
2019-06-20T02:35:50.503Z,15.40
2019-06-20T02:36:50.510Z,13.30
2019-06-20T02:37:50.470Z,12.70
2019-06-20T02:38:50.454Z,13.50
2019-06-20T02:39:50.441Z,16.50
2019-06-20T02:40:50.424Z,15.30
2019-06-20T02:41:50.413Z,13.30
2019-06-20T02:42:50.421Z,14.80
2019-06-20T02:43:50.379Z,13.60
2019-06-20T02:44:50.359Z,12.90
2019-06-20T02:45:50.349Z,13.40
2019-06-20T02:46:50.332Z,14.80
2019-06-20T02:47:50.333Z,13.60
2019-06-20T02:48:50.301Z,13.30
2019-06-20T02:49:50.297Z,14.30
2019-06-20T02:50:50.289Z,15.30
2019-06-20T02:51:50.255Z,14.60
2019-06-20T02:52:50.242Z,16.00
2019-06-20T02:53:50.234Z,15.00
2019-06-20T02:54:50.215Z,16.20
2019-06-20T02:55:50.217Z,15.50
2019-06-20T02:56:50.177Z,14.60
2019-06-20T02:57:50.163Z,17.80
2019-06-20T02:58:50.150Z,15.20
2019-06-20T02:59:50.181Z,15.60
2019-06-20T03:00:50.188Z,15.20
2019-06-20T03:01:50.106Z,16.30
2019-06-20T03:02:50.089Z,15.20
2019-06-20T03:03:50.081Z,15.00
2019-06-20T03:04:50.063Z,17.10
2019-06-20T03:05:50.045Z,17.80
2019-06-20T03:06:50.043Z,15.50
2019-06-20T03:07:50.013Z,16.60
2019-06-20T03:08:50.000Z,15.90
2019-06-20T03:09:49.983Z,16.00
2019-06-20T03:10:49.971Z,19.00
2019-06-20T03:11:49.948Z,19.90
2019-06-20T03:12:49.955Z,16.00
2019-06-20T03:13:49.961Z,17.80
2019-06-20T03:14:49.904Z,16.80
2019-06-20T03:15:50.155Z,16.60
2019-06-20T03:16:49.872Z,16.90
2019-06-20T03:17:49.857Z,18.30
2019-06-20T03:18:49.858Z,16.70
2019-06-20T03:19:49.829Z,18.90
2019-06-20T03:20:49.815Z,17.80
2019-06-20T03:21:49.800Z,19.70
2019-06-20T03:22:49.782Z,17.40
2019-06-20T03:23:49.766Z,19.20
2019-06-20T03:24:49.770Z,18.20
2019-06-20T03:25:49.733Z,18.30
2019-06-20T03:26:49.732Z,17.10
2019-06-20T03:27:49.708Z,18.60
2019-06-20T03:28:49.706Z,18.20
2019-06-20T03:29:49.694Z,17.00
2019-06-20T03:30:49.674Z,18.20
2019-06-20T03:31:49.661Z,20.40
2019-06-20T03:32:49.632Z,18.80
2019-06-20T03:33:49.614Z,17.40
2019-06-20T03:34:49.603Z,20.70
2019-06-20T03:35:49.604Z,19.40
2019-06-20T03:36:49.587Z,17.80
2019-06-20T03:37:50.396Z,17.70
2019-06-20T03:38:49.537Z,19.40
2019-06-20T03:39:49.531Z,19.70
2019-06-20T03:40:49.536Z,21.30
2019-06-20T03:41:49.494Z,20.20
2019-06-20T03:42:49.484Z,19.20
2019-06-20T03:43:49.465Z,19.50
2019-06-20T03:45:01.676Z,22.70
2019-06-20T03:45:51.379Z,22.60
2019-06-20T03:46:49.439Z,21.10
2019-06-20T03:47:49.402Z,22.20
2019-06-20T03:48:49.394Z,22.30
2019-06-20T03:49:49.411Z,19.50
2019-06-20T03:50:49.355Z,20.40
2019-06-20T03:51:51.675Z,20.40
2019-06-20T03:52:49.343Z,21.40
2019-06-20T03:53:49.435Z,22.50
2019-06-20T03:54:49.296Z,20.10
2019-06-20T03:55:49.280Z,22.10
2019-06-20T03:56:49.297Z,25.70
2019-06-20T03:57:49.297Z,20.90
2019-06-20T03:58:49.269Z,23.70
2019-06-20T03:59:49.393Z,24.40
2019-06-20T04:00:49.963Z,20.70
2019-06-20T04:01:49.360Z,22.70
2019-06-20T04:02:49.970Z,22.10
2019-06-20T04:03:49.280Z,21.90
2019-06-20T04:04:49.959Z,21.50
2019-06-20T04:05:49.981Z,22.00
2019-06-20T04:06:49.194Z,23.10
2019-06-20T04:07:49.115Z,23.70
2019-06-20T04:08:49.069Z,20.90
2019-06-20T04:09:49.077Z,20.60
2019-06-20T04:10:49.059Z,22.10
2019-06-20T04:11:49.029Z,21.40
2019-06-20T04:12:49.016Z,22.50
2019-06-20T04:13:48.998Z,20.50
2019-06-20T04:14:49.279Z,21.90
2019-06-20T04:15:48.987Z,22.60
2019-06-20T04:16:48.950Z,24.00
2019-06-20T04:17:48.956Z,21.70
2019-06-20T04:18:48.925Z,24.40
2019-06-20T04:19:48.907Z,23.30
2019-06-20T04:20:48.897Z,24.60
2019-06-20T04:21:48.892Z,26.60
2019-06-20T04:22:48.860Z,24.10
2019-06-20T04:23:48.856Z,24.00
2019-06-20T04:24:48.828Z,23.80
2019-06-20T04:25:48.815Z,22.50
2019-06-20T04:26:48.814Z,25.10
2019-06-20T04:27:48.781Z,24.30
2019-06-20T04:28:48.771Z,25.00
2019-06-20T04:29:48.750Z,28.90
2019-06-20T04:30:48.736Z,24.50
2019-06-20T04:31:48.729Z,26.20
2019-06-20T04:32:48.715Z,24.50
2019-06-20T04:33:48.713Z,27.70
2019-06-20T04:34:48.689Z,26.00
2019-06-20T04:35:48.669Z,26.20
2019-06-20T04:36:48.651Z,27.40
2019-06-20T04:37:48.639Z,26.40
2019-06-20T04:38:48.615Z,25.80
2019-06-20T04:39:48.647Z,30.90
2019-06-20T04:40:48.583Z,24.90
2019-06-20T04:41:48.562Z,25.90
2019-06-20T04:42:48.549Z,27.70
2019-06-20T04:43:48.549Z,26.60
2019-06-20T04:44:48.518Z,27.50
2019-06-20T04:45:48.515Z,28.10
2019-06-20T04:46:48.488Z,29.30
2019-06-20T04:47:48.464Z,30.00
2019-06-20T04:48:48.459Z,27.90
2019-06-20T04:49:48.456Z,29.50
2019-06-20T04:50:48.442Z,28.20
2019-06-20T04:51:48.410Z,27.20
2019-06-20T04:52:48.397Z,27.60
2019-06-20T04:53:48.381Z,28.10
2019-06-20T04:54:48.368Z,25.00
2019-06-20T04:55:48.356Z,30.30
2019-06-20T04:56:48.355Z,29.10
2019-06-20T04:57:48.322Z,27.30
2019-06-20T04:58:48.309Z,29.30
2019-06-20T04:59:48.302Z,28.90
2019-06-20T05:00:48.278Z,30.50
2019-06-20T05:01:48.273Z,25.80
2019-06-20T05:02:48.267Z,27.40
2019-06-20T05:03:48.234Z,27.10
2019-06-20T05:04:48.220Z,28.60
2019-06-20T05:05:48.196Z,27.90
2019-06-20T05:06:48.192Z,31.20
2019-06-20T05:07:48.205Z,28.20
2019-06-20T05:08:48.152Z,25.60
2019-06-20T05:09:48.132Z,30.00
2019-06-20T05:10:48.118Z,28.20
2019-06-20T05:11:48.104Z,28.50
2019-06-20T05:12:48.090Z,25.90
2019-06-20T05:13:48.091Z,29.00
2019-06-20T05:14:48.076Z,28.20
2019-06-20T05:15:52.434Z,26.90
2019-06-20T05:16:48.030Z,29.70
2019-06-20T05:17:48.023Z,26.80
2019-06-20T05:18:48.006Z,30.10
2019-06-20T05:19:47.996Z,29.70
2019-06-20T05:20:47.965Z,29.20
2019-06-20T05:21:47.948Z,28.30
2019-06-20T05:22:47.932Z,28.10
2019-06-20T05:23:47.918Z,26.30
2019-06-20T05:24:47.914Z,29.90
2019-06-20T05:25:47.901Z,27.20
2019-06-20T05:26:47.878Z,27.60
2019-06-20T05:27:47.857Z,25.30
2019-06-20T05:28:47.838Z,28.10
2019-06-20T05:29:47.837Z,26.80
2019-06-20T05:30:47.829Z,31.10
2019-06-20T05:31:47.799Z,28.50
2019-06-20T05:32:47.777Z,27.30
2019-06-20T05:33:47.762Z,27.20
2019-06-20T05:34:47.752Z,27.60
2019-06-20T05:35:47.756Z,28.30
2019-06-20T05:36:47.719Z,26.80
2019-06-20T05:37:47.705Z,26.80
2019-06-20T05:38:47.687Z,29.20
2019-06-20T05:39:47.675Z,25.50
2019-06-20T05:40:47.666Z,27.90
2019-06-20T05:41:47.744Z,29.00
2019-06-20T05:42:47.628Z,26.50
2019-06-20T05:43:47.614Z,28.60
2019-06-20T05:44:47.595Z,26.20
2019-06-20T05:45:48.832Z,26.30
2019-06-20T05:46:47.567Z,27.60
2019-06-20T05:47:47.555Z,25.20
2019-06-20T05:48:47.553Z,26.10
2019-06-20T05:49:47.519Z,25.60
2019-06-20T05:50:47.509Z,26.90
2019-06-20T05:51:47.499Z,25.70
2019-06-20T05:52:47.543Z,25.10
2019-06-20T05:53:47.457Z,31.40
2019-06-20T05:54:47.461Z,24.70
2019-06-20T05:55:47.431Z,25.30
2019-06-20T05:56:47.445Z,25.10
2019-06-20T05:57:47.417Z,24.70
2019-06-20T05:58:47.384Z,25.30
2019-06-20T05:59:47.376Z,26.60
2019-06-20T06:00:47.375Z,26.70
2019-06-20T06:01:47.335Z,26.20
2019-06-20T06:02:47.324Z,25.10
2019-06-20T06:03:47.316Z,27.70
2019-06-20T06:04:47.301Z,26.70
2019-06-20T06:05:47.299Z,24.30
2019-06-20T06:06:47.587Z,27.70
2019-06-20T06:07:47.244Z,25.80
2019-06-20T06:08:47.231Z,27.10
2019-06-20T06:09:47.220Z,24.10
2019-06-20T06:10:47.202Z,24.80
2019-06-20T06:11:47.205Z,25.80
2019-06-20T06:12:47.172Z,28.00
2019-06-20T06:13:47.156Z,24.30
2019-06-20T06:14:47.142Z,26.30
2019-06-20T06:15:47.123Z,28.30
2019-06-20T06:16:47.124Z,24.40
2019-06-20T06:17:47.107Z,26.10
2019-06-20T06:18:47.104Z,25.30
2019-06-20T06:19:47.077Z,25.80
2019-06-20T06:20:47.047Z,28.00
2019-06-20T06:21:47.033Z,21.90
2019-06-20T06:22:47.033Z,23.00
2019-06-20T06:23:47.050Z,26.80
2019-06-20T06:24:46.986Z,24.10
2019-06-20T06:25:46.968Z,27.40
2019-06-20T06:26:46.957Z,30.50
2019-06-20T06:27:46.936Z,23.90
2019-06-20T06:28:46.925Z,26.10
2019-06-20T06:29:46.927Z,25.30
2019-06-20T06:30:46.896Z,23.50
2019-06-20T06:31:46.874Z,26.10
2019-06-20T06:32:46.867Z,25.90
2019-06-20T06:33:46.857Z,22.00
2019-06-20T06:34:46.845Z,24.50
2019-06-20T06:35:46.829Z,24.80
2019-06-20T06:36:46.811Z,22.60
2019-06-20T06:37:46.788Z,21.70
2019-06-20T06:38:46.781Z,23.40
2019-06-20T06:39:46.757Z,23.60
2019-06-20T06:40:46.759Z,22.70
2019-06-20T06:41:46.730Z,24.50
2019-06-20T06:42:46.713Z,21.30
2019-06-20T06:43:46.696Z,19.60
2019-06-20T06:44:46.685Z,22.30
2019-06-20T06:45:46.685Z,19.60
2019-06-20T06:46:53.486Z,21.30
2019-06-20T06:47:46.632Z,22.00
2019-06-20T06:48:46.640Z,20.70
2019-06-20T06:49:46.605Z,22.40
2019-06-20T06:50:46.698Z,20.20
2019-06-20T06:51:46.597Z,20.80
2019-06-20T06:52:46.561Z,20.20
2019-06-20T06:53:46.542Z,21.50
2019-06-20T06:54:46.528Z,21.30
2019-06-20T06:55:46.523Z,20.90
2019-06-20T06:56:46.500Z,20.20
2019-06-20T06:57:46.513Z,20.40
2019-06-20T06:58:46.472Z,23.40
2019-06-20T06:59:46.456Z,19.80
2019-06-20T07:00:46.467Z,21.80
2019-06-20T07:01:46.427Z,18.00
2019-06-20T07:02:46.417Z,19.40
2019-06-20T07:03:46.416Z,18.90
2019-06-20T07:04:46.389Z,20.90
2019-06-20T07:05:46.414Z,20.20
2019-06-20T07:06:46.355Z,19.90
2019-06-20T07:07:46.354Z,19.10
2019-06-20T07:08:46.335Z,21.40
2019-06-20T07:09:46.311Z,19.50
2019-06-20T07:10:46.307Z,18.10
2019-06-20T07:11:46.275Z,19.20
2019-06-20T07:12:46.262Z,20.00
2019-06-20T07:13:46.253Z,18.20
2019-06-20T07:14:46.235Z,19.20
2019-06-20T07:15:46.243Z,17.90
2019-06-20T07:16:59.408Z,22.40
2019-06-20T07:17:46.192Z,19.10
2019-06-20T07:18:46.173Z,17.30
2019-06-20T07:19:46.231Z,16.70
2019-06-20T07:20:46.157Z,19.70
2019-06-20T07:21:46.128Z,18.90
2019-06-20T07:22:46.121Z,19.80
2019-06-20T07:23:46.111Z,18.60
2019-06-20T07:24:46.088Z,18.90
2019-06-20T07:25:46.099Z,21.10
2019-06-20T07:26:46.051Z,16.90
2019-06-20T07:27:46.057Z,20.70
2019-06-20T07:28:46.048Z,19.20
2019-06-20T07:29:46.012Z,17.40
2019-06-20T07:30:46.001Z,20.80
2019-06-20T07:31:45.996Z,19.50
2019-06-20T07:32:45.968Z,14.70
2019-06-20T07:33:45.960Z,15.90
2019-06-20T07:34:45.940Z,16.80
2019-06-20T07:35:45.946Z,16.50
2019-06-20T07:36:45.924Z,17.10
2019-06-20T07:37:45.974Z,17.10
2019-06-20T07:38:45.890Z,17.30
2019-06-20T07:39:45.867Z,16.10
2019-06-20T07:40:45.864Z,14.50
2019-06-20T07:41:45.873Z,14.00
2019-06-20T07:42:45.862Z,16.20
2019-06-20T07:43:45.813Z,15.40
2019-06-20T07:44:45.807Z,14.70
2019-06-20T07:46:01.408Z,14.80
2019-06-20T07:46:45.767Z,16.20
2019-06-20T07:47:45.764Z,14.90
2019-06-20T07:48:45.761Z,12.50
2019-06-20T07:49:45.729Z,14.40
2019-06-20T07:50:45.724Z,13.90
2019-06-20T07:51:45.699Z,13.10
2019-06-20T07:53:00.964Z,15.60
2019-06-20T07:53:45.664Z,12.40
2019-06-20T07:54:45.676Z,12.30
2019-06-20T07:55:45.641Z,13.00
2019-06-20T07:56:45.660Z,13.10
2019-06-20T07:57:45.611Z,13.20
2019-06-20T07:58:45.613Z,14.80
2019-06-20T07:59:45.595Z,13.60
2019-06-20T08:00:45.568Z,12.80
2019-06-20T08:01:45.550Z,13.30
2019-06-20T08:02:45.540Z,15.20
2019-06-20T08:03:45.522Z,13.60
2019-06-20T08:04:45.526Z,14.50
2019-06-20T08:05:45.544Z,15.00
2019-06-20T08:06:45.489Z,13.70
2019-06-20T08:07:45.466Z,13.20
2019-06-20T08:08:45.462Z,15.40
2019-06-20T08:09:45.673Z,12.70
2019-06-20T08:10:45.441Z,13.90
2019-06-20T08:11:45.410Z,13.80
2019-06-20T08:12:45.401Z,16.00
2019-06-20T08:13:45.383Z,12.70
2019-06-20T08:14:45.375Z,14.90
2019-06-20T08:15:45.357Z,13.90
2019-06-20T08:16:45.382Z,14.10
2019-06-20T08:17:45.325Z,12.90
2019-06-20T08:18:45.322Z,12.80
2019-06-20T08:19:45.295Z,14.50
2019-06-20T08:20:45.295Z,13.30
2019-06-20T08:21:45.262Z,13.40
2019-06-20T08:22:45.256Z,13.70
2019-06-20T08:23:45.235Z,14.60
2019-06-20T08:24:45.271Z,12.00
2019-06-20T08:25:45.249Z,12.70
2019-06-20T08:26:45.260Z,11.20
2019-06-20T08:27:45.191Z,12.40
2019-06-20T08:28:45.180Z,11.20
2019-06-20T08:29:45.164Z,12.60
2019-06-20T08:30:45.158Z,11.60
2019-06-20T08:31:45.139Z,11.10
2019-06-20T08:32:45.116Z,10.90
2019-06-20T08:33:45.134Z,9.60
2019-06-20T08:34:45.092Z,11.30
2019-06-20T08:35:45.069Z,9.90
2019-06-20T08:36:45.053Z,12.40
2019-06-20T08:37:45.068Z,11.00
2019-06-20T08:38:45.038Z,12.10
2019-06-20T08:39:45.018Z,10.30
2019-06-20T08:40:44.999Z,10.70
2019-06-20T08:41:44.993Z,11.90
2019-06-20T08:42:44.980Z,10.80
2019-06-20T08:43:45.194Z,10.70
2019-06-20T08:44:44.962Z,13.10
2019-06-20T08:45:44.928Z,13.30
2019-06-20T08:46:44.917Z,11.70
2019-06-20T08:47:44.901Z,10.60
2019-06-20T08:48:44.885Z,10.80
2019-06-20T08:49:44.897Z,10.70
2019-06-20T08:50:44.860Z,12.20
2019-06-20T08:51:44.846Z,13.80
2019-06-20T08:52:44.836Z,12.10
2019-06-20T08:53:44.838Z,10.50
2019-06-20T08:54:44.808Z,10.50
2019-06-20T08:55:44.812Z,13.50
2019-06-20T08:56:44.791Z,11.10
2019-06-20T08:57:44.768Z,11.10
2019-06-20T08:58:44.747Z,10.00
2019-06-20T08:59:44.757Z,11.40
2019-06-20T09:00:44.742Z,9.30
2019-06-20T09:01:45.573Z,9.80
2019-06-20T09:02:44.700Z,11.60
2019-06-20T09:03:44.765Z,9.50
2019-06-20T09:04:44.682Z,10.70
2019-06-20T09:05:44.662Z,10.90
2019-06-20T09:06:44.697Z,10.70
2019-06-20T09:07:44.793Z,11.70
2019-06-20T09:08:44.614Z,11.40
2019-06-20T09:09:44.600Z,11.50
2019-06-20T09:10:44.596Z,9.40
2019-06-20T09:11:44.574Z,11.00
2019-06-20T09:12:44.588Z,8.70
2019-06-20T09:13:44.546Z,10.20
2019-06-20T09:14:44.534Z,8.00
2019-06-20T09:15:44.522Z,7.20
2019-06-20T09:16:44.527Z,7.30
2019-06-20T09:17:44.499Z,8.50
2019-06-20T09:18:44.501Z,6.90
2019-06-20T09:19:44.472Z,6.20
2019-06-20T09:20:44.460Z,8.40
2019-06-20T09:21:44.464Z,7.70
2019-06-20T09:22:44.441Z,8.60
2019-06-20T09:23:44.474Z,8.10
2019-06-20T09:24:44.420Z,8.90
2019-06-20T09:25:44.397Z,8.50
2019-06-20T09:26:44.410Z,10.00
2019-06-20T09:27:44.366Z,7.50
2019-06-20T09:28:44.358Z,10.10
2019-06-20T09:29:44.355Z,9.50
2019-06-20T09:30:44.326Z,9.70
2019-06-20T09:31:44.328Z,10.90
2019-06-20T09:32:44.326Z,9.20
2019-06-20T09:33:44.286Z,10.70
2019-06-20T09:34:44.274Z,10.50
2019-06-20T09:35:44.280Z,11.00
2019-06-20T09:36:44.278Z,10.60
2019-06-20T09:37:44.232Z,9.60
2019-06-20T09:38:44.227Z,13.30
2019-06-20T09:39:44.217Z,10.60
2019-06-20T09:40:44.201Z,11.20
2019-06-20T09:41:44.203Z,9.20
2019-06-20T09:42:44.182Z,10.10
2019-06-20T09:43:44.169Z,9.10
2019-06-20T09:44:44.152Z,11.40
2019-06-20T09:45:44.142Z,9.30
2019-06-20T09:46:44.142Z,9.90
2019-06-20T09:47:44.124Z,11.40
2019-06-20T09:48:44.124Z,9.80
2019-06-20T09:49:44.087Z,10.10
2019-06-20T09:50:44.072Z,11.30
2019-06-20T09:51:44.072Z,9.50
2019-06-20T09:52:44.049Z,10.10
2019-06-20T09:53:44.075Z,8.70
2019-06-20T09:54:44.033Z,8.90
2019-06-20T09:55:44.018Z,11.30
2019-06-20T09:56:47.136Z,9.00
2019-06-20T09:57:44.004Z,7.50
2019-06-20T09:58:43.988Z,9.00
2019-06-20T09:59:56.253Z,7.60
2019-06-20T10:00:43.959Z,8.80
2019-06-20T10:01:43.960Z,8.00
2019-06-20T10:02:43.949Z,8.50
2019-06-20T10:03:43.943Z,7.00
2019-06-20T10:04:43.948Z,7.80
2019-06-20T10:05:43.932Z,6.30
2019-06-20T10:06:43.916Z,8.10
2019-06-20T10:07:43.904Z,7.30
2019-06-20T10:08:43.885Z,9.70
2019-06-20T10:09:43.863Z,7.60
2019-06-20T10:10:43.880Z,6.50
2019-06-20T10:11:43.843Z,8.20
2019-06-20T10:12:45.195Z,6.50
2019-06-20T10:13:45.015Z,7.80
2019-06-20T10:14:45.446Z,8.90
2019-06-20T10:15:44.921Z,8.90
2019-06-20T10:16:47.192Z,8.70
2019-06-20T10:17:43.869Z,6.90
2019-06-20T10:18:43.753Z,8.20
2019-06-20T10:19:43.750Z,9.10
2019-06-20T10:20:44.411Z,6.60
2019-06-20T10:21:43.728Z,7.20
2019-06-20T10:22:44.070Z,6.60
2019-06-20T10:23:43.707Z,9.30
2019-06-20T10:24:45.790Z,9.30
2019-06-20T10:25:46.098Z,7.90
2019-06-20T10:26:44.902Z,10.40
2019-06-20T10:27:45.985Z,8.00
2019-06-20T10:28:44.611Z,9.20
2019-06-20T10:29:44.428Z,8.10
2019-06-20T10:30:44.760Z,7.40
2019-06-20T10:31:45.750Z,7.70
2019-06-20T10:32:45.173Z,7.50
2019-06-20T10:33:45.210Z,7.10
2019-06-20T10:34:45.127Z,7.10
2019-06-20T10:35:45.230Z,6.40
2019-06-20T10:36:44.836Z,6.80
2019-06-20T10:37:43.900Z,9.00
2019-06-20T10:38:43.711Z,7.20
2019-06-20T10:39:44.520Z,7.70
2019-06-20T10:40:44.712Z,8.50
2019-06-20T10:41:44.869Z,6.30
2019-06-20T10:42:45.795Z,8.80
2019-06-20T10:43:44.683Z,8.40
2019-06-20T10:44:44.287Z,7.70
2019-06-20T10:45:44.674Z,7.20
2019-06-20T10:46:44.580Z,7.20
2019-06-20T10:47:44.083Z,8.00
2019-06-20T10:48:44.311Z,8.20
2019-06-20T10:49:44.606Z,5.60
2019-06-20T10:50:43.995Z,6.20
2019-06-20T10:51:44.125Z,9.30
2019-06-20T10:52:43.655Z,6.30
2019-06-20T10:53:44.515Z,6.40
2019-06-20T10:54:43.354Z,9.20
2019-06-20T10:55:43.441Z,7.00
2019-06-20T10:56:44.064Z,5.90
2019-06-20T10:57:44.515Z,6.00
2019-06-20T10:58:44.545Z,7.40
2019-06-20T10:59:44.257Z,5.90
2019-06-20T11:00:44.478Z,8.10
2019-06-20T11:01:44.341Z,6.00
2019-06-20T11:02:43.890Z,5.60
2019-06-20T11:03:43.527Z,7.30
2019-06-20T11:04:44.027Z,5.30
2019-06-20T11:05:43.835Z,6.80
2019-06-20T11:06:43.228Z,8.10
2019-06-20T11:07:43.790Z,7.30
2019-06-20T11:08:43.388Z,6.80
2019-06-20T11:09:43.164Z,5.90
2019-06-20T11:10:43.580Z,8.10
2019-06-20T11:11:43.138Z,7.60
2019-06-20T11:12:51.109Z,9.10
2019-06-20T11:13:44.358Z,7.70
2019-06-20T11:14:44.126Z,8.80
2019-06-20T11:15:44.073Z,8.10
2019-06-20T11:16:43.455Z,7.90
2019-06-20T11:17:44.203Z,8.10
2019-06-20T11:18:43.647Z,8.80
2019-06-20T11:19:43.755Z,7.40
2019-06-20T11:20:44.366Z,7.20
2019-06-20T11:21:43.265Z,7.80
2019-06-20T11:22:43.267Z,8.60
2019-06-20T11:23:43.050Z,6.70
2019-06-20T11:24:43.058Z,7.40
2019-06-20T11:25:43.669Z,7.70
2019-06-20T11:26:43.126Z,6.60
2019-06-20T11:27:43.032Z,9.00
2019-06-20T11:28:42.949Z,7.10
2019-06-20T11:29:44.101Z,6.70
2019-06-20T11:30:54.018Z,9.70
2019-06-20T11:31:46.202Z,7.10
2019-06-20T11:32:43.514Z,7.70
2019-06-20T11:33:44.088Z,8.20
2019-06-20T11:34:42.871Z,9.00
2019-06-20T11:35:43.448Z,8.50
2019-06-20T11:36:42.848Z,9.20
2019-06-20T11:37:42.825Z,7.80
2019-06-20T11:38:42.797Z,5.90
2019-06-20T11:39:43.258Z,7.30
2019-06-20T11:40:43.825Z,6.80
2019-06-20T11:41:43.666Z,7.20
2019-06-20T11:42:42.744Z,8.10
2019-06-20T11:43:42.732Z,7.00
2019-06-20T11:44:43.070Z,6.60
2019-06-20T11:45:43.070Z,7.80
2019-06-20T11:46:42.709Z,7.30
2019-06-20T11:47:42.718Z,6.60
2019-06-20T11:48:43.040Z,8.00
2019-06-20T11:49:42.656Z,6.90
2019-06-20T11:50:42.661Z,6.70
2019-06-20T11:51:42.641Z,7.20
2019-06-20T11:52:45.641Z,7.20
2019-06-20T11:53:42.731Z,6.90
2019-06-20T11:54:42.593Z,5.90
2019-06-20T11:55:42.583Z,7.80
2019-06-20T11:56:42.585Z,7.40
2019-06-20T11:57:42.590Z,7.00
2019-06-20T11:58:42.545Z,7.30
2019-06-20T11:59:42.531Z,9.10
2019-06-20T12:00:42.538Z,7.10
2019-06-20T12:01:42.881Z,7.40
2019-06-20T12:02:44.130Z,6.80
2019-06-20T12:03:42.562Z,7.50
2019-06-20T12:04:42.968Z,6.90
2019-06-20T12:05:43.267Z,9.90
2019-06-20T12:06:43.030Z,7.80
2019-06-20T12:07:43.842Z,9.70
2019-06-20T12:08:42.459Z,8.70
2019-06-20T12:09:42.425Z,8.00
2019-06-20T12:10:43.095Z,8.90
2019-06-20T12:11:42.442Z,8.10
2019-06-20T12:12:42.616Z,10.20
2019-06-20T12:13:42.363Z,9.50
2019-06-20T12:14:42.574Z,8.00
2019-06-20T12:15:42.843Z,7.80
2019-06-20T12:16:42.427Z,7.60
2019-06-20T12:17:43.397Z,9.00
2019-06-20T12:18:43.112Z,7.40
2019-06-20T12:19:42.497Z,8.60
2019-06-20T12:20:42.851Z,7.70
2019-06-20T12:21:42.481Z,8.90
2019-06-20T12:22:43.183Z,10.60
2019-06-20T12:23:42.525Z,8.50
2019-06-20T12:24:42.984Z,9.50
2019-06-20T12:25:42.709Z,9.20
2019-06-20T12:26:42.486Z,8.80
2019-06-20T12:27:43.133Z,10.20
2019-06-20T12:28:42.323Z,8.30
2019-06-20T12:29:42.179Z,8.90
2019-06-20T12:30:43.533Z,7.60
2019-06-20T12:31:43.094Z,7.70
2019-06-20T12:32:42.503Z,8.00
2019-06-20T12:33:42.514Z,6.50
2019-06-20T12:34:42.232Z,7.80
2019-06-20T12:35:42.741Z,6.60
2019-06-20T12:36:42.511Z,6.90
2019-06-20T12:37:42.701Z,8.40
2019-06-20T12:38:43.237Z,8.50
2019-06-20T12:39:42.313Z,6.60
2019-06-20T12:40:42.547Z,6.90
2019-06-20T12:41:43.158Z,7.60
2019-06-20T12:42:43.237Z,7.80
2019-06-20T12:43:41.993Z,10.90
2019-06-20T12:44:41.972Z,7.70
2019-06-20T12:45:42.865Z,7.20
2019-06-20T12:46:42.688Z,5.70
2019-06-20T12:47:42.038Z,6.80
2019-06-20T12:48:42.820Z,5.50
2019-06-20T12:49:41.907Z,5.70
2019-06-20T12:50:42.977Z,8.00
2019-06-20T12:51:42.120Z,6.10
2019-06-20T12:52:42.591Z,5.90
2019-06-20T12:53:41.987Z,5.80
2019-06-20T12:54:43.229Z,7.10
2019-06-20T12:55:42.450Z,6.80
2019-06-20T12:56:41.950Z,7.20
2019-06-20T12:57:42.301Z,6.80
2019-06-20T12:58:42.241Z,5.40
2019-06-20T12:59:42.684Z,5.10
2019-06-20T13:00:43.610Z,5.90
2019-06-20T13:01:45.755Z,5.70
2019-06-20T13:02:42.370Z,6.00
2019-06-20T13:03:42.785Z,5.70